Terminal Aerodrome Forecast
Issued by NWS

Current Version | Previous Version | Text Only | Print | Product List | Glossary On
Versions: 1 2 3 4 5 6 7 8 9 10 11 12 13 14 15 16 17
000
FTUS41 KILN 160200 AAA
TAFLCK
TAF AMD
KLCK 160217Z 1602/1624 32006KT P6SM VCSH SCT040 OVC080
     FM160400 36006KT P6SM VCSH OVC025
     FM160600 36006KT P6SM OVC012
     FM160800 36008KT 4SM BR OVC006
     FM161500 01008KT P6SM OVC012
     FM161700 01008KT P6SM BKN025
     FM161900 01008KT P6SM BKN035=

USA.gov is the U.S. government's official web portal to all federal, state and local government web resources and services.